sensor_id;sensor_type;location;lat;lon;timestamp;temperature;humidity
28530;DHT22;15737;49.760;6.632;2023-05-02T00:07:10;7.50;99.90
28530;DHT22;15737;49.760;6.632;2023-05-02T00:09:36;7.50;99.90
28530;DHT22;15737;49.760;6.632;2023-05-02T00:12:02;7.40;99.90
28530;DHT22;15737;49.760;6.632;2023-05-02T00:16:58;7.30;99.90
28530;DHT22;15737;49.760;6.632;2023-05-02T00:19:24;7.30;99.90
28530;DHT22;15737;49.760;6.632;2023-05-02T00:21:49;7.30;99.90
28530;DHT22;15737;49.760;6.632;2023-05-02T00:24:16;7.30;99.90
28530;DHT22;15737;49.760;6.632;2023-05-02T00:26:42;7.30;99.90
28530;DHT22;15737;49.760;6.632;2023-05-02T00:29:08;7.30;99.90
28530;DHT22;15737;49.760;6.632;2023-05-02T00:31:33;7.20;99.90
28530;DHT22;15737;49.760;6.632;2023-05-02T00:34:00;7.20;99.90
28530;DHT22;15737;49.760;6.632;2023-05-02T00:36:25;7.20;99.90
28530;DHT22;15737;49.760;6.632;2023-05-02T00:38:51;7.20;99.90
28530;DHT22;15737;49.760;6.632;2023-05-02T00:41:17;7.20;99.90
28530;DHT22;15737;49.760;6.632;2023-05-02T00:43:44;7.20;99.90
28530;DHT22;15737;49.760;6.632;2023-05-02T00:46:09;7.10;99.90
28530;DHT22;15737;49.760;6.632;2023-05-02T00:51:05;7.10;99.90
28530;DHT22;15737;49.760;6.632;2023-05-02T00:53:33;7.10;99.90
28530;DHT22;15737;49.760;6.632;2023-05-02T00:56:01;7.10;99.90
28530;DHT22;15737;49.760;6.632;2023-05-02T00:58:26;7.00;99.90
28530;DHT22;15737;49.760;6.632;2023-05-02T01:01:19;6.90;99.90
28530;DHT22;15737;49.760;6.632;2023-05-02T01:14:41;6.70;99.90
28530;DHT22;15737;49.760;6.632;2023-05-02T01:17:11;6.80;99.90
28530;DHT22;15737;49.760;6.632;2023-05-02T01:19:42;6.70;99.90
28530;DHT22;15737;49.760;6.632;2023-05-02T01:22:10;6.70;99.90
28530;DHT22;15737;49.760;6.632;2023-05-02T01:24:59;6.80;99.90
28530;DHT22;15737;49.760;6.632;2023-05-02T01:27:48;6.80;99.90
28530;DHT22;15737;49.760;6.632;2023-05-02T01:30:16;6.70;99.90
28530;DHT22;15737;49.760;6.632;2023-05-02T01:32:45;6.70;99.90
28530;DHT22;15737;49.760;6.632;2023-05-02T01:35:14;6.60;99.90
28530;DHT22;15737;49.760;6.632;2023-05-02T01:37:42;6.50;99.90
28530;DHT22;15737;49.760;6.632;2023-05-02T01:40:10;6.50;99.90
28530;DHT22;15737;49.760;6.632;2023-05-02T01:42:37;6.50;99.90
28530;DHT22;15737;49.760;6.632;2023-05-02T01:45:04;6.50;99.90
28530;DHT22;15737;49.760;6.632;2023-05-02T01:47:34;6.50;99.90
28530;DHT22;15737;49.760;6.632;2023-05-02T01:50:04;6.40;99.90
28530;DHT22;15737;49.760;6.632;2023-05-02T01:52:34;6.40;99.90
28530;DHT22;15737;49.760;6.632;2023-05-02T01:55:01;6.40;99.90
28530;DHT22;15737;49.760;6.632;2023-05-02T01:57:29;6.40;99.90
28530;DHT22;15737;49.760;6.632;2023-05-02T01:59:58;6.40;99.90
28530;DHT22;15737;49.760;6.632;2023-05-02T02:02:26;6.40;99.90
28530;DHT22;15737;49.760;6.632;2023-05-02T02:04:56;6.40;99.90
28530;DHT22;15737;49.760;6.632;2023-05-02T02:07:26;6.40;99.90
28530;DHT22;15737;49.760;6.632;2023-05-02T02:09:51;6.30;99.90
28530;DHT22;15737;49.760;6.632;2023-05-02T02:12:25;6.30;99.90
28530;DHT22;15737;49.760;6.632;2023-05-02T02:15:18;6.30;99.90
28530;DHT22;15737;49.760;6.632;2023-05-02T02:17:48;6.20;99.90
28530;DHT22;15737;49.760;6.632;2023-05-02T02:20:16;6.20;99.90
28530;DHT22;15737;49.760;6.632;2023-05-02T02:22:43;6.20;99.90
28530;DHT22;15737;49.760;6.632;2023-05-02T02:25:11;6.20;99.90
28530;DHT22;15737;49.760;6.632;2023-05-02T02:27:38;6.20;99.90
28530;DHT22;15737;49.760;6.632;2023-05-02T02:30:05;6.20;99.90
28530;DHT22;15737;49.760;6.632;2023-05-02T02:32:31;6.20;99.90
28530;DHT22;15737;49.760;6.632;2023-05-02T02:34:56;6.20;99.90
28530;DHT22;15737;49.760;6.632;2023-05-02T02:40:22;6.20;99.90
28530;DHT22;15737;49.760;6.632;2023-05-02T02:42:57;6.10;99.90
28530;DHT22;15737;49.760;6.632;2023-05-02T02:48:34;6.20;99.90
28530;DHT22;15737;49.760;6.632;2023-05-02T02:54:12;6.20;99.90
28530;DHT22;15737;49.760;6.632;2023-05-02T02:56:40;6.50;99.90
28530;DHT22;15737;49.760;6.632;2023-05-02T02:59:13;6.70;99.90
28530;DHT22;15737;49.760;6.632;2023-05-02T03:01:42;6.80;99.90
28530;DHT22;15737;49.760;6.632;2023-05-02T03:04:12;6.90;99.90
28530;DHT22;15737;49.760;6.632;2023-05-02T03:06:39;6.90;99.90
28530;DHT22;15737;49.760;6.632;2023-05-02T03:09:05;6.80;99.90
28530;DHT22;15737;49.760;6.632;2023-05-02T03:11:30;6.70;99.90
28530;DHT22;15737;49.760;6.632;2023-05-02T03:13:56;6.70;99.90
28530;DHT22;15737;49.760;6.632;2023-05-02T03:16:38;6.70;99.90
28530;DHT22;15737;49.760;6.632;2023-05-02T03:19:05;6.60;99.90
28530;DHT22;15737;49.760;6.632;2023-05-02T03:21:31;6.50;99.90
28530;DHT22;15737;49.760;6.632;2023-05-02T03:24:01;6.40;99.90
28530;DHT22;15737;49.760;6.632;2023-05-02T03:26:27;6.40;99.90
28530;DHT22;15737;49.760;6.632;2023-05-02T03:28:54;6.40;99.90
28530;DHT22;15737;49.760;6.632;2023-05-02T03:31:19;6.40;99.90
28530;DHT22;15737;49.760;6.632;2023-05-02T03:33:46;6.30;99.90
28530;DHT22;15737;49.760;6.632;2023-05-02T03:36:12;6.40;99.90
28530;DHT22;15737;49.760;6.632;2023-05-02T03:38:38;6.30;99.90
28530;DHT22;15737;49.760;6.632;2023-05-02T03:41:03;6.40;99.90
28530;DHT22;15737;49.760;6.632;2023-05-02T03:43:31;6.50;99.90
28530;DHT22;15737;49.760;6.632;2023-05-02T03:46:17;6.50;99.90
28530;DHT22;15737;49.760;6.632;2023-05-02T03:48:42;6.40;99.90
28530;DHT22;15737;49.760;6.632;2023-05-02T03:51:10;6.30;99.90
28530;DHT22;15737;49.760;6.632;2023-05-02T03:53:36;6.20;99.90
28530;DHT22;15737;49.760;6.632;2023-05-02T03:56:01;6.10;99.90
28530;DHT22;15737;49.760;6.632;2023-05-02T03:58:28;6.20;99.90
28530;DHT22;15737;49.760;6.632;2023-05-02T04:00:54;6.20;99.90
28530;DHT22;15737;49.760;6.632;2023-05-02T04:03:20;6.30;99.90
28530;DHT22;15737;49.760;6.632;2023-05-02T04:05:46;6.30;99.90
28530;DHT22;15737;49.760;6.632;2023-05-02T04:08:11;6.40;99.90
28530;DHT22;15737;49.760;6.632;2023-05-02T04:10:38;6.40;99.90
28530;DHT22;15737;49.760;6.632;2023-05-02T04:13:03;6.50;99.90
28530;DHT22;15737;49.760;6.632;2023-05-02T04:15:30;6.50;99.90
28530;DHT22;15737;49.760;6.632;2023-05-02T04:17:59;6.50;99.90
28530;DHT22;15737;49.760;6.632;2023-05-02T04:20:24;6.60;99.90
28530;DHT22;15737;49.760;6.632;2023-05-02T04:22:50;6.70;99.90
28530;DHT22;15737;49.760;6.632;2023-05-02T04:25:16;6.70;99.90
28530;DHT22;15737;49.760;6.632;2023-05-02T04:27:42;6.80;99.90
28530;DHT22;15737;49.760;6.632;2023-05-02T04:30:08;7.00;99.90
28530;DHT22;15737;49.760;6.632;2023-05-02T04:32:37;7.10;99.90
28530;DHT22;15737;49.760;6.632;2023-05-02T04:35:02;7.40;99.90
28530;DHT22;15737;49.760;6.632;2023-05-02T04:37:30;7.50;99.90
28530;DHT22;15737;49.760;6.632;2023-05-02T04:39:57;7.60;99.90
28530;DHT22;15737;49.760;6.632;2023-05-02T04:42:23;7.70;99.90
28530;DHT22;15737;49.760;6.632;2023-05-02T04:44:49;7.90;99.90
28530;DHT22;15737;49.760;6.632;2023-05-02T04:47:15;8.20;99.90
28530;DHT22;15737;49.760;6.632;2023-05-02T04:49:41;8.30;99.90
28530;DHT22;15737;49.760;6.632;2023-05-02T04:52:08;8.40;99.90
28530;DHT22;15737;49.760;6.632;2023-05-02T04:54:34;8.40;99.90
28530;DHT22;15737;49.760;6.632;2023-05-02T04:56:59;8.40;99.90
28530;DHT22;15737;49.760;6.632;2023-05-02T04:59:28;8.40;99.90
28530;DHT22;15737;49.760;6.632;2023-05-02T05:01:55;8.50;99.90
28530;DHT22;15737;49.760;6.632;2023-05-02T05:04:20;8.60;99.90
28530;DHT22;15737;49.760;6.632;2023-05-02T05:06:46;8.70;99.90
28530;DHT22;15737;49.760;6.632;2023-05-02T05:09:12;8.90;99.90
28530;DHT22;15737;49.760;6.632;2023-05-02T05:11:38;9.00;99.90
28530;DHT22;15737;49.760;6.632;2023-05-02T05:14:04;9.10;99.90
28530;DHT22;15737;49.760;6.632;2023-05-02T05:16:29;9.10;99.90
28530;DHT22;15737;49.760;6.632;2023-05-02T05:18:55;9.00;99.90
28530;DHT22;15737;49.760;6.632;2023-05-02T05:21:20;9.00;99.90
28530;DHT22;15737;49.760;6.632;2023-05-02T05:23:46;9.00;99.90
28530;DHT22;15737;49.760;6.632;2023-05-02T05:26:13;9.00;99.90
28530;DHT22;15737;49.760;6.632;2023-05-02T05:28:42;9.20;99.90
28530;DHT22;15737;49.760;6.632;2023-05-02T05:31:09;9.20;99.90
28530;DHT22;15737;49.760;6.632;2023-05-02T05:33:35;9.40;99.90
28530;DHT22;15737;49.760;6.632;2023-05-02T05:36:05;9.50;99.90
28530;DHT22;15737;49.760;6.632;2023-05-02T05:38:31;9.60;99.90
28530;DHT22;15737;49.760;6.632;2023-05-02T05:40:56;9.60;99.90
28530;DHT22;15737;49.760;6.632;2023-05-02T05:43:22;9.70;99.90
28530;DHT22;15737;49.760;6.632;2023-05-02T05:45:48;9.70;99.90
28530;DHT22;15737;49.760;6.632;2023-05-02T05:48:15;9.80;99.90
28530;DHT22;15737;49.760;6.632;2023-05-02T05:50:41;9.70;99.90
28530;DHT22;15737;49.760;6.632;2023-05-02T05:53:06;9.60;99.90
28530;DHT22;15737;49.760;6.632;2023-05-02T05:55:32;9.50;99.90
28530;DHT22;15737;49.760;6.632;2023-05-02T05:57:57;9.50;99.90
28530;DHT22;15737;49.760;6.632;2023-05-02T06:00:23;9.40;99.90
28530;DHT22;15737;49.760;6.632;2023-05-02T06:02:48;9.30;99.90
28530;DHT22;15737;49.760;6.632;2023-05-02T06:05:14;9.20;99.90
28530;DHT22;15737;49.760;6.632;2023-05-02T06:07:40;9.30;99.90
28530;DHT22;15737;49.760;6.632;2023-05-02T06:10:09;9.40;99.90
28530;DHT22;15737;49.760;6.632;2023-05-02T06:12:35;9.50;99.90
28530;DHT22;15737;49.760;6.632;2023-05-02T06:15:00;9.70;99.90
28530;DHT22;15737;49.760;6.632;2023-05-02T06:17:26;10.00;99.90
28530;DHT22;15737;49.760;6.632;2023-05-02T06:19:51;10.10;99.90
28530;DHT22;15737;49.760;6.632;2023-05-02T06:22:17;10.00;99.90
28530;DHT22;15737;49.760;6.632;2023-05-02T06:24:42;9.80;99.90
28530;DHT22;15737;49.760;6.632;2023-05-02T06:27:08;9.60;99.90
28530;DHT22;15737;49.760;6.632;2023-05-02T06:29:33;9.60;99.90
28530;DHT22;15737;49.760;6.632;2023-05-02T06:31:59;9.60;99.90
28530;DHT22;15737;49.760;6.632;2023-05-02T06:34:24;9.60;99.90
28530;DHT22;15737;49.760;6.632;2023-05-02T06:36:54;9.70;99.90
28530;DHT22;15737;49.760;6.632;2023-05-02T06:39:23;9.90;99.90
28530;DHT22;15737;49.760;6.632;2023-05-02T06:41:49;9.90;99.90
28530;DHT22;15737;49.760;6.632;2023-05-02T06:44:14;10.00;99.90
28530;DHT22;15737;49.760;6.632;2023-05-02T06:46:40;10.10;99.90
28530;DHT22;15737;49.760;6.632;2023-05-02T06:49:06;10.30;99.90
28530;DHT22;15737;49.760;6.632;2023-05-02T06:51:31;10.40;99.90
28530;DHT22;15737;49.760;6.632;2023-05-02T06:53:59;10.50;99.90
28530;DHT22;15737;49.760;6.632;2023-05-02T06:56:25;10.60;99.90
28530;DHT22;15737;49.760;6.632;2023-05-02T06:58:51;10.80;99.90
28530;DHT22;15737;49.760;6.632;2023-05-02T07:01:17;11.00;99.90
28530;DHT22;15737;49.760;6.632;2023-05-02T07:03:42;11.20;99.90
28530;DHT22;15737;49.760;6.632;2023-05-02T07:06:08;11.40;99.90
28530;DHT22;15737;49.760;6.632;2023-05-02T07:08:34;11.50;99.90
28530;DHT22;15737;49.760;6.632;2023-05-02T07:10:59;11.60;99.90
28530;DHT22;15737;49.760;6.632;2023-05-02T07:13:25;11.90;99.90
28530;DHT22;15737;49.760;6.632;2023-05-02T07:15:53;11.90;99.90
28530;DHT22;15737;49.760;6.632;2023-05-02T07:18:30;11.40;99.90
28530;DHT22;15737;49.760;6.632;2023-05-02T07:20:55;11.00;99.90
28530;DHT22;15737;49.760;6.632;2023-05-02T07:23:21;11.00;99.90
28530;DHT22;15737;49.760;6.632;2023-05-02T07:25:47;11.20;99.90
28530;DHT22;15737;49.760;6.632;2023-05-02T07:28:12;12.80;99.90
28530;DHT22;15737;49.760;6.632;2023-05-02T07:30:38;18.90;99.90
28530;DHT22;15737;49.760;6.632;2023-05-02T07:33:03;22.60;99.90
28530;DHT22;15737;49.760;6.632;2023-05-02T07:35:29;25.40;94.50
28530;DHT22;15737;49.760;6.632;2023-05-02T07:37:54;27.60;81.10
28530;DHT22;15737;49.760;6.632;2023-05-02T07:40:21;24.70;84.40
28530;DHT22;15737;49.760;6.632;2023-05-02T07:42:47;21.70;90.30
28530;DHT22;15737;49.760;6.632;2023-05-02T07:45:13;19.20;95.00
28530;DHT22;15737;49.760;6.632;2023-05-02T07:47:38;19.50;97.30
28530;DHT22;15737;49.760;6.632;2023-05-02T07:50:04;21.20;94.60
28530;DHT22;15737;49.760;6.632;2023-05-02T07:52:30;20.20;95.30
28530;DHT22;15737;49.760;6.632;2023-05-02T07:54:56;20.90;95.00
28530;DHT22;15737;49.760;6.632;2023-05-02T07:57:22;22.30;92.30
28530;DHT22;15737;49.760;6.632;2023-05-02T07:59:48;22.60;92.00
28530;DHT22;15737;49.760;6.632;2023-05-02T08:02:13;21.70;92.60
28530;DHT22;15737;49.760;6.632;2023-05-02T08:04:41;20.40;92.90
28530;DHT22;15737;49.760;6.632;2023-05-02T08:07:07;18.70;95.60
28530;DHT22;15737;49.760;6.632;2023-05-02T08:09:33;17.60;97.50
28530;DHT22;15737;49.760;6.632;2023-05-02T08:11:58;16.50;99.30
28530;DHT22;15737;49.760;6.632;2023-05-02T08:14:24;16.10;99.90
28530;DHT22;15737;49.760;6.632;2023-05-02T08:16:49;15.80;99.90
28530;DHT22;15737;49.760;6.632;2023-05-02T08:19:15;15.50;99.90
28530;DHT22;15737;49.760;6.632;2023-05-02T08:21:41;15.40;99.90
28530;DHT22;15737;49.760;6.632;2023-05-02T08:24:07;15.40;99.90
28530;DHT22;15737;49.760;6.632;2023-05-02T08:26:32;15.60;99.90
28530;DHT22;15737;49.760;6.632;2023-05-02T08:28:58;16.00;99.90
28530;DHT22;15737;49.760;6.632;2023-05-02T08:31:24;16.60;99.90
28530;DHT22;15737;49.760;6.632;2023-05-02T08:33:49;16.90;99.90
28530;DHT22;15737;49.760;6.632;2023-05-02T08:36:16;17.10;99.90
28530;DHT22;15737;49.760;6.632;2023-05-02T08:38:43;17.50;99.90
28530;DHT22;15737;49.760;6.632;2023-05-02T08:41:18;18.40;99.90
28530;DHT22;15737;49.760;6.632;2023-05-02T08:43:45;19.10;98.90
28530;DHT22;15737;49.760;6.632;2023-05-02T08:46:12;18.60;98.50
28530;DHT22;15737;49.760;6.632;2023-05-02T08:48:50;17.80;99.20
28530;DHT22;15737;49.760;6.632;2023-05-02T08:51:17;17.20;99.90
28530;DHT22;15737;49.760;6.632;2023-05-02T08:53:43;16.80;99.90
28530;DHT22;15737;49.760;6.632;2023-05-02T08:56:10;16.70;99.90
28530;DHT22;15737;49.760;6.632;2023-05-02T08:58:38;16.70;99.90
28530;DHT22;15737;49.760;6.632;2023-05-02T09:01:22;16.80;99.90
28530;DHT22;15737;49.760;6.632;2023-05-02T09:03:48;17.10;99.90
28530;DHT22;15737;49.760;6.632;2023-05-02T09:06:21;17.90;99.90
28530;DHT22;15737;49.760;6.632;2023-05-02T09:08:50;18.70;99.40
28530;DHT22;15737;49.760;6.632;2023-05-02T09:11:19;18.80;98.70
28530;DHT22;15737;49.760;6.632;2023-05-02T09:13:50;21.80;95.70
28530;DHT22;15737;49.760;6.632;2023-05-02T09:16:20;25.20;88.10
28530;DHT22;15737;49.760;6.632;2023-05-02T09:18:57;26.30;77.90
28530;DHT22;15737;49.760;6.632;2023-05-02T09:21:37;26.50;70.60
28530;DHT22;15737;49.760;6.632;2023-05-02T09:24:18;26.10;71.40
28530;DHT22;15737;49.760;6.632;2023-05-02T09:26:58;27.10;64.60
28530;DHT22;15737;49.760;6.632;2023-05-02T09:29:26;25.80;65.10
28530;DHT22;15737;49.760;6.632;2023-05-02T09:31:51;24.50;67.40
28530;DHT22;15737;49.760;6.632;2023-05-02T09:34:18;25.00;68.50
28530;DHT22;15737;49.760;6.632;2023-05-02T09:36:48;25.20;67.00
28530;DHT22;15737;49.760;6.632;2023-05-02T09:39:33;23.50;69.80
28530;DHT22;15737;49.760;6.632;2023-05-02T09:42:00;22.90;73.50
28530;DHT22;15737;49.760;6.632;2023-05-02T09:44:36;22.30;75.60
28530;DHT22;15737;49.760;6.632;2023-05-02T09:47:01;21.50;77.50
28530;DHT22;15737;49.760;6.632;2023-05-02T09:49:44;20.80;79.70
28530;DHT22;15737;49.760;6.632;2023-05-02T09:52:17;20.00;82.00
28530;DHT22;15737;49.760;6.632;2023-05-02T09:54:44;19.70;83.60
28530;DHT22;15737;49.760;6.632;2023-05-02T09:57:10;19.30;84.30
28530;DHT22;15737;49.760;6.632;2023-05-02T09:59:37;18.90;86.30
28530;DHT22;15737;49.760;6.632;2023-05-02T10:02:04;18.90;86.60
28530;DHT22;15737;49.760;6.632;2023-05-02T10:04:32;20.10;85.10
28530;DHT22;15737;49.760;6.632;2023-05-02T10:06:58;23.70;77.00
28530;DHT22;15737;49.760;6.632;2023-05-02T10:09:25;23.90;72.80
28530;DHT22;15737;49.760;6.632;2023-05-02T10:11:54;24.00;71.80
28530;DHT22;15737;49.760;6.632;2023-05-02T10:14:21;24.30;70.20
28530;DHT22;15737;49.760;6.632;2023-05-02T10:16:54;23.70;70.10
28530;DHT22;15737;49.760;6.632;2023-05-02T10:19:28;22.90;72.00
28530;DHT22;15737;49.760;6.632;2023-05-02T10:21:55;21.80;73.30
28530;DHT22;15737;49.760;6.632;2023-05-02T10:24:21;21.10;75.30
28530;DHT22;15737;49.760;6.632;2023-05-02T10:26:49;21.20;76.10
28530;DHT22;15737;49.760;6.632;2023-05-02T10:29:14;21.90;75.50
28530;DHT22;15737;49.760;6.632;2023-05-02T10:31:40;22.50;74.50
28530;DHT22;15737;49.760;6.632;2023-05-02T10:34:10;22.60;70.40
28530;DHT22;15737;49.760;6.632;2023-05-02T10:36:36;21.80;72.50
28530;DHT22;15737;49.760;6.632;2023-05-02T10:39:02;21.50;72.90
28530;DHT22;15737;49.760;6.632;2023-05-02T10:41:30;20.90;76.30
28530;DHT22;15737;49.760;6.632;2023-05-02T10:43:57;20.40;78.80
28530;DHT22;15737;49.760;6.632;2023-05-02T10:46:34;20.40;79.70
28530;DHT22;15737;49.760;6.632;2023-05-02T10:49:10;20.70;79.30
28530;DHT22;15737;49.760;6.632;2023-05-02T10:51:38;20.60;79.00
28530;DHT22;15737;49.760;6.632;2023-05-02T10:59:38;19.60;82.60
28530;DHT22;15737;49.760;6.632;2023-05-02T11:02:45;21.40;79.40
28530;DHT22;15737;49.760;6.632;2023-05-02T11:04:59;22.10;76.80
28530;DHT22;15737;49.760;6.632;2023-05-02T11:07:26;22.20;77.00
28530;DHT22;15737;49.760;6.632;2023-05-02T11:09:51;22.20;76.80
28530;DHT22;15737;49.760;6.632;2023-05-02T11:12:46;22.20;77.50
28530;DHT22;15737;49.760;6.632;2023-05-02T11:15:12;22.10;77.70
28530;DHT22;15737;49.760;6.632;2023-05-02T11:20:17;21.40;79.20
28530;DHT22;15737;49.760;6.632;2023-05-02T11:22:43;21.20;80.30
28530;DHT22;15737;49.760;6.632;2023-05-02T11:25:28;21.30;81.90
28530;DHT22;15737;49.760;6.632;2023-05-02T11:27:54;20.70;83.60
28530;DHT22;15737;49.760;6.632;2023-05-02T11:30:36;19.50;87.00
28530;DHT22;15737;49.760;6.632;2023-05-02T11:35:30;17.80;91.10
28530;DHT22;15737;49.760;6.632;2023-05-02T11:38:01;17.80;92.00
28530;DHT22;15737;49.760;6.632;2023-05-02T11:40:27;17.90;92.50
28530;DHT22;15737;49.760;6.632;2023-05-02T11:42:53;17.90;92.50
28530;DHT22;15737;49.760;6.632;2023-05-02T11:45:19;17.90;92.90
28530;DHT22;15737;49.760;6.632;2023-05-02T11:47:47;18.10;93.00
28530;DHT22;15737;49.760;6.632;2023-05-02T11:50:16;18.40;92.90
28530;DHT22;15737;49.760;6.632;2023-05-02T11:52:43;18.80;92.50
28530;DHT22;15737;49.760;6.632;2023-05-02T11:55:13;19.20;92.10
28530;DHT22;15737;49.760;6.632;2023-05-02T11:57:39;19.40;91.80
28530;DHT22;15737;49.760;6.632;2023-05-02T12:00:09;19.40;91.30
28530;DHT22;15737;49.760;6.632;2023-05-02T12:02:50;19.20;90.90
28530;DHT22;15737;49.760;6.632;2023-05-02T12:05:33;19.30;91.00
28530;DHT22;15737;49.760;6.632;2023-05-02T12:08:15;19.40;90.30
28530;DHT22;15737;49.760;6.632;2023-05-02T12:10:55;19.50;89.70
28530;DHT22;15737;49.760;6.632;2023-05-02T12:13:31;19.30;89.60
28530;DHT22;15737;49.760;6.632;2023-05-02T12:16:09;19.50;89.20
28530;DHT22;15737;49.760;6.632;2023-05-02T12:18:42;20.20;87.80
28530;DHT22;15737;49.760;6.632;2023-05-02T12:21:13;21.10;85.60
28530;DHT22;15737;49.760;6.632;2023-05-02T12:23:45;21.00;84.40
28530;DHT22;15737;49.760;6.632;2023-05-02T12:26:21;20.50;85.60
28530;DHT22;15737;49.760;6.632;2023-05-02T12:28:52;20.30;85.80
28530;DHT22;15737;49.760;6.632;2023-05-02T12:31:21;20.10;85.20
28530;DHT22;15737;49.760;6.632;2023-05-02T12:33:47;19.50;84.40
28530;DHT22;15737;49.760;6.632;2023-05-02T12:36:14;19.30;84.30
28530;DHT22;15737;49.760;6.632;2023-05-02T12:38:39;19.50;84.40
28530;DHT22;15737;49.760;6.632;2023-05-02T12:41:11;19.40;83.80
28530;DHT22;15737;49.760;6.632;2023-05-02T12:43:47;19.70;84.30
28530;DHT22;15737;49.760;6.632;2023-05-02T12:46:13;20.40;82.70
28530;DHT22;15737;49.760;6.632;2023-05-02T12:48:39;20.70;80.90
28530;DHT22;15737;49.760;6.632;2023-05-02T12:51:05;20.60;80.80
28530;DHT22;15737;49.760;6.632;2023-05-02T12:53:38;20.20;81.00
28530;DHT22;15737;49.760;6.632;2023-05-02T12:56:07;20.30;81.90
28530;DHT22;15737;49.760;6.632;2023-05-02T12:58:44;19.90;82.90
28530;DHT22;15737;49.760;6.632;2023-05-02T13:01:11;19.20;86.00
28530;DHT22;15737;49.760;6.632;2023-05-02T13:03:37;18.80;91.10
28530;DHT22;15737;49.760;6.632;2023-05-02T13:06:03;18.20;92.60
28530;DHT22;15737;49.760;6.632;2023-05-02T13:11:25;18.10;93.40
28530;DHT22;15737;49.760;6.632;2023-05-02T13:13:59;18.30;92.50
28530;DHT22;15737;49.760;6.632;2023-05-02T13:16:34;18.60;92.60
28530;DHT22;15737;49.760;6.632;2023-05-02T13:19:10;19.30;92.00
28530;DHT22;15737;49.760;6.632;2023-05-02T13:21:43;19.90;91.10
28530;DHT22;15737;49.760;6.632;2023-05-02T13:24:08;19.30;90.70
28530;DHT22;15737;49.760;6.632;2023-05-02T13:26:35;18.80;91.20
28530;DHT22;15737;49.760;6.632;2023-05-02T13:29:00;18.60;91.40
28530;DHT22;15737;49.760;6.632;2023-05-02T13:31:26;18.30;91.50
28530;DHT22;15737;49.760;6.632;2023-05-02T13:33:51;18.10;92.00
28530;DHT22;15737;49.760;6.632;2023-05-02T13:36:17;18.20;92.00
28530;DHT22;15737;49.760;6.632;2023-05-02T13:38:42;18.20;91.60
28530;DHT22;15737;49.760;6.632;2023-05-02T13:41:08;18.80;91.80
28530;DHT22;15737;49.760;6.632;2023-05-02T13:43:33;20.50;90.80
28530;DHT22;15737;49.760;6.632;2023-05-02T13:45:59;21.40;87.50
28530;DHT22;15737;49.760;6.632;2023-05-02T13:48:24;21.40;83.70
28530;DHT22;15737;49.760;6.632;2023-05-02T13:50:50;20.90;84.30
28530;DHT22;15737;49.760;6.632;2023-05-02T13:53:16;20.50;84.00
28530;DHT22;15737;49.760;6.632;2023-05-02T13:55:47;20.60;84.00
28530;DHT22;15737;49.760;6.632;2023-05-02T13:58:29;21.40;83.00
28530;DHT22;15737;49.760;6.632;2023-05-02T14:01:09;21.60;81.80
28530;DHT22;15737;49.760;6.632;2023-05-02T14:03:47;21.10;81.60
28530;DHT22;15737;49.760;6.632;2023-05-02T14:06:27;20.40;83.40
28530;DHT22;15737;49.760;6.632;2023-05-02T14:09:06;20.40;83.40
28530;DHT22;15737;49.760;6.632;2023-05-02T14:11:42;20.40;82.70
28530;DHT22;15737;49.760;6.632;2023-05-02T14:14:18;19.80;82.60
28530;DHT22;15737;49.760;6.632;2023-05-02T14:16:56;19.70;83.10
28530;DHT22;15737;49.760;6.632;2023-05-02T14:19:37;19.80;79.30
28530;DHT22;15737;49.760;6.632;2023-05-02T14:24:48;19.50;77.40
28530;DHT22;15737;49.760;6.632;2023-05-02T14:27:25;19.80;77.00
28530;DHT22;15737;49.760;6.632;2023-05-02T14:30:01;20.20;76.20
28530;DHT22;15737;49.760;6.632;2023-05-02T14:32:44;20.60;75.70
28530;DHT22;15737;49.760;6.632;2023-05-02T14:35:23;21.10;74.30
28530;DHT22;15737;49.760;6.632;2023-05-02T14:38:02;21.40;72.60
28530;DHT22;15737;49.760;6.632;2023-05-02T14:40:39;21.40;72.20
28530;DHT22;15737;49.760;6.632;2023-05-02T14:43:14;21.30;68.90
28530;DHT22;15737;49.760;6.632;2023-05-02T14:45:52;20.80;70.40
28530;DHT22;15737;49.760;6.632;2023-05-02T14:48:31;20.20;70.30
28530;DHT22;15737;49.760;6.632;2023-05-02T14:51:09;19.80;70.50
28530;DHT22;15737;49.760;6.632;2023-05-02T14:56:17;19.50;69.70
28530;DHT22;15737;49.760;6.632;2023-05-02T14:58:58;19.90;67.80
28530;DHT22;15737;49.760;6.632;2023-05-02T15:01:32;20.10;65.90
28530;DHT22;15737;49.760;6.632;2023-05-02T15:04:02;19.90;65.20
28530;DHT22;15737;49.760;6.632;2023-05-02T15:06:28;20.20;65.40
28530;DHT22;15737;49.760;6.632;2023-05-02T15:08:55;20.30;65.30
28530;DHT22;15737;49.760;6.632;2023-05-02T15:11:21;20.40;64.30
28530;DHT22;15737;49.760;6.632;2023-05-02T15:13:47;20.10;64.40
28530;DHT22;15737;49.760;6.632;2023-05-02T15:16:12;20.40;65.40
28530;DHT22;15737;49.760;6.632;2023-05-02T15:18:38;20.70;64.40
28530;DHT22;15737;49.760;6.632;2023-05-02T15:21:03;20.70;64.60
28530;DHT22;15737;49.760;6.632;2023-05-02T15:23:29;20.90;64.30
28530;DHT22;15737;49.760;6.632;2023-05-02T15:28:25;21.20;64.80
28530;DHT22;15737;49.760;6.632;2023-05-02T15:30:51;21.50;63.70
28530;DHT22;15737;49.760;6.632;2023-05-02T15:33:16;21.70;63.40
28530;DHT22;15737;49.760;6.632;2023-05-02T15:35:54;22.20;63.10
28530;DHT22;15737;49.760;6.632;2023-05-02T15:38:20;22.30;63.00
28530;DHT22;15737;49.760;6.632;2023-05-02T15:40:56;22.40;63.20
28530;DHT22;15737;49.760;6.632;2023-05-02T15:43:23;22.40;63.10
28530;DHT22;15737;49.760;6.632;2023-05-02T15:46:00;22.40;63.30
28530;DHT22;15737;49.760;6.632;2023-05-02T15:48:27;22.50;63.30
28530;DHT22;15737;49.760;6.632;2023-05-02T15:50:54;22.40;62.00
28530;DHT22;15737;49.760;6.632;2023-05-02T15:55:51;22.00;62.70
28530;DHT22;15737;49.760;6.632;2023-05-02T15:58:17;22.20;62.40
28530;DHT22;15737;49.760;6.632;2023-05-02T16:00:44;22.20;61.20
28530;DHT22;15737;49.760;6.632;2023-05-02T16:03:10;21.90;60.90
28530;DHT22;15737;49.760;6.632;2023-05-02T16:05:38;21.50;60.60
28530;DHT22;15737;49.760;6.632;2023-05-02T16:08:15;21.00;62.40
28530;DHT22;15737;49.760;6.632;2023-05-02T16:10:50;21.10;63.00
28530;DHT22;15737;49.760;6.632;2023-05-02T16:13:16;20.80;61.80
28530;DHT22;15737;49.760;6.632;2023-05-02T16:15:42;20.50;63.40
28530;DHT22;15737;49.760;6.632;2023-05-02T16:18:07;20.60;63.70
28530;DHT22;15737;49.760;6.632;2023-05-02T16:20:33;20.60;63.60
28530;DHT22;15737;49.760;6.632;2023-05-02T16:23:10;20.40;63.80
28530;DHT22;15737;49.760;6.632;2023-05-02T16:25:35;20.30;63.30
28530;DHT22;15737;49.760;6.632;2023-05-02T16:28:01;20.20;63.60
28530;DHT22;15737;49.760;6.632;2023-05-02T16:30:27;20.20;63.70
28530;DHT22;15737;49.760;6.632;2023-05-02T16:32:53;20.20;62.20
28530;DHT22;15737;49.760;6.632;2023-05-02T16:35:18;20.00;63.30
28530;DHT22;15737;49.760;6.632;2023-05-02T16:37:45;20.10;63.60
28530;DHT22;15737;49.760;6.632;2023-05-02T16:40:11;19.80;63.90
28530;DHT22;15737;49.760;6.632;2023-05-02T16:42:37;19.90;64.00